createdAt,value
2023-05-05T00:02:49.361Z,0.94
2023-05-05T00:08:05.346Z,0.9
2023-05-05T00:13:22.247Z,0.93
2023-05-05T00:18:38.474Z,0.92
2023-05-05T00:23:57.136Z,0.91
2023-05-05T00:29:13.883Z,0.92
2023-05-05T00:34:30.763Z,0.92
2023-05-05T00:39:46.017Z,0.88
2023-05-05T00:45:02.877Z,0.9
2023-05-05T00:50:19.577Z,0.87
2023-05-05T00:55:35.850Z,0.89
2023-05-05T01:00:51.298Z,0.85
2023-05-05T01:06:07.712Z,0.92
2023-05-05T01:11:23.028Z,0.89
2023-05-05T01:16:40.560Z,0.88
2023-05-05T01:21:57.239Z,0.88
2023-05-05T01:27:13.615Z,0.86
2023-05-05T01:32:31.560Z,0.9
2023-05-05T01:37:47.381Z,0.85
2023-05-05T01:43:04.669Z,0.84
2023-05-05T01:48:21.884Z,0.85
2023-05-05T01:53:38.262Z,0.93
2023-05-05T01:58:55.386Z,0.87
2023-05-05T02:04:12.031Z,0.89
2023-05-05T02:09:28.240Z,0.95
2023-05-05T02:14:44.996Z,0.92
2023-05-05T02:20:02.172Z,0.88
2023-05-05T02:25:18.266Z,0.91
2023-05-05T02:30:34.057Z,0.87
2023-05-05T02:35:52.165Z,0.91
2023-05-05T02:41:08.270Z,0.89
2023-05-05T02:46:25.187Z,0.87
2023-05-05T02:51:41.795Z,0.94
2023-05-05T02:56:59.262Z,0.96
2023-05-05T03:02:15.755Z,0.88
2023-05-05T03:07:34.769Z,0.96
2023-05-05T03:12:52.133Z,1
2023-05-05T03:16:14.330Z,1.11
2023-05-05T03:21:29.302Z,1.07
2023-05-05T03:26:46.735Z,1.08
2023-05-05T03:32:03.610Z,1.15
2023-05-05T03:37:20.289Z,1.24
2023-05-05T03:42:36.640Z,1.23
2023-05-05T03:47:54.943Z,1.28
2023-05-05T03:53:12.015Z,1.19
2023-05-05T03:58:30.184Z,1.21
2023-05-05T04:03:47.017Z,1.24
2023-05-05T04:09:03.687Z,1.33
2023-05-05T04:14:19.342Z,1.29
2023-05-05T04:19:35.288Z,1.31
2023-05-05T04:24:51.129Z,1.31
2023-05-05T04:30:09.893Z,1.49
2023-05-05T04:35:25.373Z,1.65
2023-05-05T04:40:41.126Z,1.47
2023-05-05T04:45:57.482Z,1.4
2023-05-05T04:51:14.805Z,1.42
2023-05-05T04:56:31.371Z,1.47
2023-05-05T05:01:50.568Z,1.43
2023-05-05T05:07:06.861Z,1.52
2023-05-05T05:12:23.478Z,1.41
2023-05-05T05:17:40.900Z,1.4
2023-05-05T05:22:57.080Z,1.4
2023-05-05T05:28:13.015Z,1.45
2023-05-05T05:33:29.725Z,1.68
2023-05-05T05:38:45.308Z,1.52
2023-05-05T05:44:01.223Z,1.71
2023-05-05T05:49:18.436Z,1.92
2023-05-05T05:54:34.359Z,1.56
2023-05-05T05:59:51.681Z,1.77
2023-05-05T06:05:08.730Z,1.75
2023-05-05T06:10:29.042Z,1.7
2023-05-05T06:15:42.047Z,1.71
2023-05-05T06:20:58.141Z,1.54
2023-05-05T06:26:14.985Z,1.7
2023-05-05T06:31:31.053Z,1.66
2023-05-05T06:36:47.688Z,1.7
2023-05-05T06:42:03.051Z,1.73
2023-05-05T06:47:20.592Z,1.62
2023-05-05T06:52:37.641Z,1.49
2023-05-05T06:57:55.120Z,1.46
2023-05-05T07:03:12.975Z,1.29
2023-05-05T07:08:29.251Z,1.29
2023-05-05T07:13:45.190Z,1.48
2023-05-05T07:19:01.571Z,1.26
2023-05-05T07:24:17.403Z,1.32
2023-05-05T07:29:34.809Z,1.34
2023-05-05T07:34:52.168Z,1.36
2023-05-05T07:40:10.740Z,1.47
2023-05-05T07:45:24.691Z,1.39
2023-05-05T07:50:41.628Z,1.23
2023-05-05T07:55:58.858Z,1.3
2023-05-05T08:01:14.086Z,1.36
2023-05-05T08:06:29.481Z,1.33
2023-05-05T08:11:45.492Z,1.33
2023-05-05T08:17:00.903Z,1.39
2023-05-05T08:22:16.884Z,1.17
2023-05-05T08:27:34.112Z,1.14
2023-05-05T08:32:50.296Z,1.09
2023-05-05T08:38:05.812Z,1.08
2023-05-05T08:43:21.910Z,1.09
2023-05-05T08:48:38.141Z,1.1
2023-05-05T08:53:54.499Z,1.14
2023-05-05T08:59:11.383Z,1.1
2023-05-05T09:04:28.264Z,1.04
2023-05-05T09:09:43.811Z,1.15
2023-05-05T09:14:59.723Z,1.05
2023-05-05T09:20:15.028Z,1.11
2023-05-05T09:25:31.223Z,1.09
2023-05-05T09:30:46.787Z,1.07
2023-05-05T09:36:02.294Z,1.05
2023-05-05T09:41:18.156Z,1.17
2023-05-05T09:46:34.424Z,1.07
2023-05-05T09:51:52.243Z,0.99
2023-05-05T09:57:07.850Z,1.01
2023-05-05T10:02:24.274Z,0.92
2023-05-05T10:07:40.487Z,1
2023-05-05T10:12:58.180Z,0.93
2023-05-05T10:18:14.945Z,1.09
2023-05-05T10:23:31.633Z,0.98
2023-05-05T10:28:48.732Z,0.97
2023-05-05T10:34:07.205Z,0.95
2023-05-05T10:39:22.893Z,1.04
2023-05-05T10:44:39.481Z,0.99
2023-05-05T10:49:56.766Z,0.99
2023-05-05T10:55:13.295Z,0.98
2023-05-05T11:00:28.979Z,0.89
2023-05-05T11:05:45.056Z,1
2023-05-05T11:11:01.481Z,0.97
2023-05-05T11:16:16.952Z,0.98
2023-05-05T11:21:32.830Z,0.98
2023-05-05T11:26:47.667Z,0.91
2023-05-05T11:32:03.764Z,0.94
2023-05-05T11:37:19.436Z,0.96
2023-05-05T11:42:35.199Z,0.98
2023-05-05T11:47:53.382Z,1.04
2023-05-05T11:53:09.102Z,0.99
2023-05-05T11:58:26.205Z,1.06
2023-05-05T12:03:44.382Z,0.98
2023-05-05T12:09:00.327Z,0.96
2023-05-05T12:14:15.336Z,0.89
2023-05-05T12:19:32.267Z,0.96
2023-05-05T12:24:49.628Z,0.93
2023-05-05T12:30:05.632Z,0.97
2023-05-05T12:35:21.428Z,0.96
2023-05-05T12:40:37.133Z,0.93
2023-05-05T12:45:54.446Z,0.96
2023-05-05T13:28:13.057Z,0.9
2023-05-05T13:33:22.526Z,0.88
2023-05-05T13:38:39.758Z,0.96
2023-05-05T13:43:57.672Z,0.86
2023-05-05T13:49:13.609Z,0.8
2023-05-05T13:54:29.396Z,0.77
2023-05-05T13:59:46.069Z,0.76
2023-05-05T14:05:01.480Z,0.73
2023-05-05T14:10:18.408Z,0.72
2023-05-05T14:15:35.874Z,0.75
2023-05-05T14:20:52.883Z,0.75
2023-05-05T14:26:09.584Z,0.78
2023-05-05T14:31:27.749Z,0.79
2023-05-05T14:36:44.925Z,0.73
2023-05-05T14:42:02.707Z,0.79
2023-05-05T14:47:18.422Z,0.77
2023-05-05T14:52:34.628Z,0.76
2023-05-05T14:57:51.524Z,0.78
2023-05-05T15:03:08.832Z,0.75
2023-05-05T15:08:23.695Z,0.79
2023-05-05T15:13:39.449Z,0.83
2023-05-05T15:18:55.769Z,0.79
2023-05-05T15:24:15.280Z,0.8
2023-05-05T15:29:31.149Z,0.95
2023-05-05T15:34:50.843Z,0.72
2023-05-05T15:40:07.718Z,0.86
2023-05-05T15:45:24.080Z,0.82
2023-05-05T15:50:39.731Z,0.67
2023-05-05T15:55:57.154Z,0.76
2023-05-05T16:01:14.679Z,0.72
2023-05-05T16:06:31.307Z,0.69
2023-05-05T16:11:48.801Z,0.75
2023-05-05T16:17:05.583Z,0.82
2023-05-05T16:22:22.586Z,0.88
2023-05-05T16:27:40.014Z,0.81
2023-05-05T17:15:17.392Z,0.87
2023-05-05T17:20:27.019Z,0.9
2023-05-05T17:25:44.370Z,0.91
2023-05-05T17:31:00.948Z,0.9
2023-05-05T17:36:19.261Z,0.92
2023-05-05T17:41:35.507Z,0.89
2023-05-05T17:46:50.883Z,0.99
2023-05-05T17:52:07.367Z,0.89
2023-05-05T17:57:23.342Z,0.92
2023-05-05T18:02:39.301Z,0.95
2023-05-05T18:07:55.341Z,1.09
2023-05-05T18:13:11.701Z,1.09
2023-05-05T18:18:26.397Z,1.02
2023-05-05T18:23:42.478Z,1.09
2023-05-05T18:28:59.075Z,1.13
2023-05-05T18:34:17.180Z,1.09
2023-05-05T18:39:34.212Z,1.21
2023-05-05T18:44:49.921Z,1.17
2023-05-05T18:50:07.395Z,1.19
2023-05-05T18:55:23.778Z,1.33
2023-05-05T19:00:40.638Z,1.24
2023-05-05T19:05:58.294Z,1.14
2023-05-05T19:11:15.374Z,1.16
2023-05-05T19:16:31.513Z,1.17
2023-05-05T19:21:47.921Z,1.14
2023-05-05T19:27:05.268Z,1.22
2023-05-05T19:32:23.474Z,1.23
2023-05-05T19:37:40.034Z,1.27
2023-05-05T19:42:55.467Z,1.39
2023-05-05T19:48:12.489Z,1.39
2023-05-05T19:53:29.188Z,1.29
2023-05-05T19:58:49.205Z,1.23
2023-05-05T20:04:04.983Z,1.22
2023-05-05T20:46:23.869Z,1.57
2023-05-05T20:51:33.204Z,1.37
2023-05-05T20:56:48.839Z,1.31
2023-05-05T21:02:06.166Z,1.51
2023-05-05T21:07:22.430Z,1.66
2023-05-05T21:12:37.875Z,1.37
2023-05-05T21:17:55.131Z,1.85
2023-05-05T21:23:10.554Z,2.06
2023-05-05T21:28:28.412Z,1.36
2023-05-05T21:33:45.292Z,1.52
2023-05-05T21:39:03.199Z,1.47
2023-05-05T21:44:18.588Z,1.53
2023-05-05T21:49:34.083Z,1.6
2023-05-05T21:54:50.921Z,1.67
2023-05-05T22:00:09.433Z,1.56
2023-05-05T22:05:25.453Z,3.01
2023-05-05T22:10:42.717Z,3.06
2023-05-05T22:15:58.704Z,6.91
2023-05-05T22:21:13.469Z,2.07
2023-05-05T22:26:30.891Z,2.44
2023-05-05T22:31:47.345Z,1.98
2023-05-05T22:37:03.897Z,2.1
2023-05-05T22:42:20.401Z,3.63
2023-05-05T22:47:37.602Z,1.6
2023-05-05T22:52:53.384Z,1.66
2023-05-05T22:58:10.614Z,1.72
2023-05-05T23:03:26.560Z,1.77
2023-05-05T23:08:43.072Z,1.58
2023-05-05T23:14:01.045Z,1.78
2023-05-05T23:19:17.111Z,2.02
2023-05-05T23:24:35.343Z,1.82
2023-05-05T23:29:50.805Z,1.85
2023-05-05T23:35:07.344Z,1.81
2023-05-05T23:40:22.550Z,1.81
2023-05-05T23:45:38.898Z,1.89
2023-05-05T23:50:54.204Z,2.64
